sensor_id;sensor_type;location;lat;lon;timestamp;temperature;humidity
44121;DHT22;29783;52.504;13.478;2023-02-02T00:01:53;4.70;83.70
44121;DHT22;29783;52.504;13.478;2023-02-02T00:04:27;4.70;83.60
44121;DHT22;29783;52.504;13.478;2023-02-02T00:06:54;4.80;83.30
44121;DHT22;29783;52.504;13.478;2023-02-02T00:09:22;4.80;83.20
44121;DHT22;29783;52.504;13.478;2023-02-02T00:11:49;4.80;82.80
44121;DHT22;29783;52.504;13.478;2023-02-02T00:14:16;4.80;83.00
44121;DHT22;29783;52.504;13.478;2023-02-02T00:16:50;5.00;82.20
44121;DHT22;29783;52.504;13.478;2023-02-02T00:19:25;5.00;82.30
44121;DHT22;29783;52.504;13.478;2023-02-02T00:21:52;4.90;82.30
44121;DHT22;29783;52.504;13.478;2023-02-02T00:24:18;5.00;82.30
44121;DHT22;29783;52.504;13.478;2023-02-02T00:26:51;5.00;81.90
44121;DHT22;29783;52.504;13.478;2023-02-02T00:29:19;5.10;81.90
44121;DHT22;29783;52.504;13.478;2023-02-02T00:31:45;5.10;81.90
44121;DHT22;29783;52.504;13.478;2023-02-02T00:34:12;5.10;81.80
44121;DHT22;29783;52.504;13.478;2023-02-02T00:36:38;5.10;81.90
44121;DHT22;29783;52.504;13.478;2023-02-02T00:39:04;5.10;81.80
44121;DHT22;29783;52.504;13.478;2023-02-02T00:41:30;5.20;81.80
44121;DHT22;29783;52.504;13.478;2023-02-02T00:43:56;5.20;82.20
44121;DHT22;29783;52.504;13.478;2023-02-02T00:46:41;5.10;82.60
44121;DHT22;29783;52.504;13.478;2023-02-02T00:49:07;5.10;82.30
44121;DHT22;29783;52.504;13.478;2023-02-02T00:51:34;5.10;82.60
44121;DHT22;29783;52.504;13.478;2023-02-02T00:54:00;5.10;83.20
44121;DHT22;29783;52.504;13.478;2023-02-02T00:56:26;5.00;84.20
44121;DHT22;29783;52.504;13.478;2023-02-02T00:58:52;4.90;84.20
44121;DHT22;29783;52.504;13.478;2023-02-02T01:01:18;4.90;85.10
44121;DHT22;29783;52.504;13.478;2023-02-02T01:03:46;4.80;85.40
44121;DHT22;29783;52.504;13.478;2023-02-02T01:06:13;4.90;85.70
44121;DHT22;29783;52.504;13.478;2023-02-02T01:08:39;4.80;86.20
44121;DHT22;29783;52.504;13.478;2023-02-02T01:11:05;4.80;86.40
44121;DHT22;29783;52.504;13.478;2023-02-02T01:13:31;4.80;86.90
44121;DHT22;29783;52.504;13.478;2023-02-02T01:15:59;4.70;87.10
44121;DHT22;29783;52.504;13.478;2023-02-02T01:18:26;4.80;87.30
44121;DHT22;29783;52.504;13.478;2023-02-02T01:21:02;4.70;87.30
44121;DHT22;29783;52.504;13.478;2023-02-02T01:23:29;4.70;87.50
44121;DHT22;29783;52.504;13.478;2023-02-02T01:26:00;4.70;87.80
44121;DHT22;29783;52.504;13.478;2023-02-02T01:28:26;4.70;88.50
44121;DHT22;29783;52.504;13.478;2023-02-02T01:30:52;4.60;88.80
44121;DHT22;29783;52.504;13.478;2023-02-02T01:33:18;4.60;88.90
44121;DHT22;29783;52.504;13.478;2023-02-02T01:35:52;4.60;88.90
44121;DHT22;29783;52.504;13.478;2023-02-02T01:38:18;4.60;89.60
44121;DHT22;29783;52.504;13.478;2023-02-02T01:40:50;4.50;90.50
44121;DHT22;29783;52.504;13.478;2023-02-02T01:45:51;4.40;90.80
44121;DHT22;29783;52.504;13.478;2023-02-02T01:48:19;4.40;90.90
44121;DHT22;29783;52.504;13.478;2023-02-02T01:50:47;4.30;91.00
44121;DHT22;29783;52.504;13.478;2023-02-02T01:53:14;4.40;90.30
44121;DHT22;29783;52.504;13.478;2023-02-02T01:55:41;4.50;89.90
44121;DHT22;29783;52.504;13.478;2023-02-02T01:58:15;4.50;90.10
44121;DHT22;29783;52.504;13.478;2023-02-02T02:00:43;4.50;90.40
44121;DHT22;29783;52.504;13.478;2023-02-02T02:03:13;4.50;90.90
44121;DHT22;29783;52.504;13.478;2023-02-02T02:05:51;4.50;90.60
44121;DHT22;29783;52.504;13.478;2023-02-02T02:10:51;4.50;90.40
44121;DHT22;29783;52.504;13.478;2023-02-02T02:13:19;4.50;90.10
44121;DHT22;29783;52.504;13.478;2023-02-02T02:15:58;4.50;90.60
44121;DHT22;29783;52.504;13.478;2023-02-02T02:18:54;4.60;90.50
44121;DHT22;29783;52.504;13.478;2023-02-02T02:21:36;4.60;90.20
44121;DHT22;29783;52.504;13.478;2023-02-02T02:33:25;4.80;89.20
44121;DHT22;29783;52.504;13.478;2023-02-02T02:39:32;4.80;88.50
44121;DHT22;29783;52.504;13.478;2023-02-02T02:41:36;4.80;88.20
44121;DHT22;29783;52.504;13.478;2023-02-02T02:44:08;4.90;88.20
44121;DHT22;29783;52.504;13.478;2023-02-02T02:46:36;4.90;88.10
44121;DHT22;29783;52.504;13.478;2023-02-02T02:49:02;5.00;87.90
44121;DHT22;29783;52.504;13.478;2023-02-02T02:51:40;5.00;88.00
44121;DHT22;29783;52.504;13.478;2023-02-02T02:54:06;5.00;87.80
44121;DHT22;29783;52.504;13.478;2023-02-02T02:59:13;5.00;87.40
44121;DHT22;29783;52.504;13.478;2023-02-02T03:02:10;5.10;87.30
44121;DHT22;29783;52.504;13.478;2023-02-02T03:07:41;5.20;86.70
44121;DHT22;29783;52.504;13.478;2023-02-02T03:10:10;5.20;86.80
44121;DHT22;29783;52.504;13.478;2023-02-02T03:12:47;5.30;86.60
44121;DHT22;29783;52.504;13.478;2023-02-02T03:15:14;5.20;86.50
44121;DHT22;29783;52.504;13.478;2023-02-02T03:17:42;5.30;86.50
44121;DHT22;29783;52.504;13.478;2023-02-02T03:20:08;5.30;85.80
44121;DHT22;29783;52.504;13.478;2023-02-02T03:22:35;5.30;86.20
44121;DHT22;29783;52.504;13.478;2023-02-02T03:25:00;5.30;86.30
44121;DHT22;29783;52.504;13.478;2023-02-02T03:27:27;5.30;86.00
44121;DHT22;29783;52.504;13.478;2023-02-02T03:29:53;5.40;86.00
44121;DHT22;29783;52.504;13.478;2023-02-02T03:32:19;5.40;85.70
44121;DHT22;29783;52.504;13.478;2023-02-02T03:34:45;5.40;85.70
44121;DHT22;29783;52.504;13.478;2023-02-02T03:37:11;5.30;86.00
44121;DHT22;29783;52.504;13.478;2023-02-02T03:39:37;5.30;85.70
44121;DHT22;29783;52.504;13.478;2023-02-02T03:42:02;5.30;85.60
44121;DHT22;29783;52.504;13.478;2023-02-02T03:44:28;5.30;85.50
44121;DHT22;29783;52.504;13.478;2023-02-02T03:46:54;5.30;86.00
44121;DHT22;29783;52.504;13.478;2023-02-02T03:49:20;5.30;86.40
44121;DHT22;29783;52.504;13.478;2023-02-02T03:51:46;5.20;86.80
44121;DHT22;29783;52.504;13.478;2023-02-02T03:54:12;5.20;86.80
44121;DHT22;29783;52.504;13.478;2023-02-02T03:56:38;5.20;87.10
44121;DHT22;29783;52.504;13.478;2023-02-02T03:59:04;5.20;86.80
44121;DHT22;29783;52.504;13.478;2023-02-02T04:01:30;5.20;86.40
44121;DHT22;29783;52.504;13.478;2023-02-02T04:03:57;5.20;86.40
44121;DHT22;29783;52.504;13.478;2023-02-02T04:06:24;5.30;85.90
44121;DHT22;29783;52.504;13.478;2023-02-02T04:08:50;5.30;86.10
44121;DHT22;29783;52.504;13.478;2023-02-02T04:11:17;5.20;86.30
44121;DHT22;29783;52.504;13.478;2023-02-02T04:13:43;5.20;86.20
44121;DHT22;29783;52.504;13.478;2023-02-02T04:16:10;5.30;86.00
44121;DHT22;29783;52.504;13.478;2023-02-02T04:18:36;5.30;86.10
44121;DHT22;29783;52.504;13.478;2023-02-02T04:21:03;5.30;85.80
44121;DHT22;29783;52.504;13.478;2023-02-02T04:23:30;5.30;86.20
44121;DHT22;29783;52.504;13.478;2023-02-02T04:25:56;5.30;86.00
44121;DHT22;29783;52.504;13.478;2023-02-02T04:28:23;5.30;85.70
44121;DHT22;29783;52.504;13.478;2023-02-02T04:30:50;5.30;85.60
44121;DHT22;29783;52.504;13.478;2023-02-02T04:33:16;5.30;85.40
44121;DHT22;29783;52.504;13.478;2023-02-02T04:35:42;5.30;85.00
44121;DHT22;29783;52.504;13.478;2023-02-02T04:38:08;5.30;84.90
44121;DHT22;29783;52.504;13.478;2023-02-02T04:40:39;5.30;84.90
44121;DHT22;29783;52.504;13.478;2023-02-02T04:43:05;5.30;85.20
44121;DHT22;29783;52.504;13.478;2023-02-02T04:45:31;5.30;85.10
44121;DHT22;29783;52.504;13.478;2023-02-02T04:47:56;5.30;85.20
44121;DHT22;29783;52.504;13.478;2023-02-02T04:50:22;5.30;85.00
44121;DHT22;29783;52.504;13.478;2023-02-02T04:52:48;5.30;84.80
44121;DHT22;29783;52.504;13.478;2023-02-02T04:55:14;5.30;85.00
44121;DHT22;29783;52.504;13.478;2023-02-02T04:57:40;5.30;84.80
44121;DHT22;29783;52.504;13.478;2023-02-02T05:00:06;5.40;84.40
44121;DHT22;29783;52.504;13.478;2023-02-02T05:02:36;5.30;84.30
44121;DHT22;29783;52.504;13.478;2023-02-02T05:05:03;5.30;84.20
44121;DHT22;29783;52.504;13.478;2023-02-02T05:07:30;5.30;84.50
44121;DHT22;29783;52.504;13.478;2023-02-02T05:09:56;5.40;83.90
44121;DHT22;29783;52.504;13.478;2023-02-02T05:12:22;5.40;84.40
44121;DHT22;29783;52.504;13.478;2023-02-02T05:14:47;5.40;84.80
44121;DHT22;29783;52.504;13.478;2023-02-02T05:17:13;5.30;85.90
44121;DHT22;29783;52.504;13.478;2023-02-02T05:19:39;5.20;86.50
44121;DHT22;29783;52.504;13.478;2023-02-02T05:22:05;5.10;87.30
44121;DHT22;29783;52.504;13.478;2023-02-02T05:24:31;5.10;87.30
44121;DHT22;29783;52.504;13.478;2023-02-02T05:26:56;5.00;87.40
44121;DHT22;29783;52.504;13.478;2023-02-02T05:29:26;5.00;87.40
44121;DHT22;29783;52.504;13.478;2023-02-02T05:31:52;5.00;87.70
44121;DHT22;29783;52.504;13.478;2023-02-02T05:34:18;5.00;87.90
44121;DHT22;29783;52.504;13.478;2023-02-02T05:36:43;4.90;87.90
44121;DHT22;29783;52.504;13.478;2023-02-02T05:39:10;4.90;88.00
44121;DHT22;29783;52.504;13.478;2023-02-02T05:41:36;4.90;87.60
44121;DHT22;29783;52.504;13.478;2023-02-02T05:44:02;4.90;88.00
44121;DHT22;29783;52.504;13.478;2023-02-02T05:46:28;4.80;87.90
44121;DHT22;29783;52.504;13.478;2023-02-02T05:48:54;4.90;87.60
44121;DHT22;29783;52.504;13.478;2023-02-02T05:51:28;4.80;87.50
44121;DHT22;29783;52.504;13.478;2023-02-02T05:53:55;4.90;87.30
44121;DHT22;29783;52.504;13.478;2023-02-02T05:56:21;4.90;87.00
44121;DHT22;29783;52.504;13.478;2023-02-02T05:58:47;4.90;86.70
44121;DHT22;29783;52.504;13.478;2023-02-02T06:01:15;4.90;86.50
44121;DHT22;29783;52.504;13.478;2023-02-02T06:03:41;5.00;86.50
44121;DHT22;29783;52.504;13.478;2023-02-02T06:06:07;5.00;86.30
44121;DHT22;29783;52.504;13.478;2023-02-02T06:08:34;5.00;85.90
44121;DHT22;29783;52.504;13.478;2023-02-02T06:11:06;5.00;86.00
44121;DHT22;29783;52.504;13.478;2023-02-02T06:13:32;5.00;86.00
44121;DHT22;29783;52.504;13.478;2023-02-02T06:15:58;5.00;85.20
44121;DHT22;29783;52.504;13.478;2023-02-02T06:18:24;5.00;85.30
44121;DHT22;29783;52.504;13.478;2023-02-02T06:20:58;5.00;85.30
44121;DHT22;29783;52.504;13.478;2023-02-02T06:23:24;5.00;85.00
44121;DHT22;29783;52.504;13.478;2023-02-02T06:25:49;5.00;84.40
44121;DHT22;29783;52.504;13.478;2023-02-02T06:28:15;5.10;84.20
44121;DHT22;29783;52.504;13.478;2023-02-02T06:30:41;5.10;84.40
44121;DHT22;29783;52.504;13.478;2023-02-02T06:33:07;5.10;84.30
44121;DHT22;29783;52.504;13.478;2023-02-02T06:35:33;5.20;84.10
44121;DHT22;29783;52.504;13.478;2023-02-02T06:37:58;5.20;83.50
44121;DHT22;29783;52.504;13.478;2023-02-02T06:40:25;5.30;83.20
44121;DHT22;29783;52.504;13.478;2023-02-02T06:42:58;5.20;83.10
44121;DHT22;29783;52.504;13.478;2023-02-02T06:45:25;5.30;83.20
44121;DHT22;29783;52.504;13.478;2023-02-02T06:47:51;5.30;82.90
44121;DHT22;29783;52.504;13.478;2023-02-02T06:50:17;5.30;83.20
44121;DHT22;29783;52.504;13.478;2023-02-02T06:52:50;5.30;82.80
44121;DHT22;29783;52.504;13.478;2023-02-02T06:55:17;5.20;83.00
44121;DHT22;29783;52.504;13.478;2023-02-02T06:57:43;5.20;82.90
44121;DHT22;29783;52.504;13.478;2023-02-02T07:00:10;5.20;82.60
44121;DHT22;29783;52.504;13.478;2023-02-02T07:02:36;5.30;82.60
44121;DHT22;29783;52.504;13.478;2023-02-02T07:05:02;5.20;82.60
44121;DHT22;29783;52.504;13.478;2023-02-02T07:07:32;5.20;82.40
44121;DHT22;29783;52.504;13.478;2023-02-02T07:09:58;5.20;82.40
44121;DHT22;29783;52.504;13.478;2023-02-02T07:12:24;5.10;82.40
44121;DHT22;29783;52.504;13.478;2023-02-02T07:14:51;5.10;82.40
44121;DHT22;29783;52.504;13.478;2023-02-02T07:17:17;5.20;81.50
44121;DHT22;29783;52.504;13.478;2023-02-02T07:19:43;5.10;81.50
44121;DHT22;29783;52.504;13.478;2023-02-02T07:22:09;5.10;80.90
44121;DHT22;29783;52.504;13.478;2023-02-02T07:24:35;5.10;80.40
44121;DHT22;29783;52.504;13.478;2023-02-02T07:27:18;5.10;79.90
44121;DHT22;29783;52.504;13.478;2023-02-02T07:29:48;5.20;79.60
44121;DHT22;29783;52.504;13.478;2023-02-02T07:32:14;5.30;78.60
44121;DHT22;29783;52.504;13.478;2023-02-02T07:34:40;5.30;78.10
44121;DHT22;29783;52.504;13.478;2023-02-02T07:37:07;5.30;77.90
44121;DHT22;29783;52.504;13.478;2023-02-02T07:39:33;5.20;78.20
44121;DHT22;29783;52.504;13.478;2023-02-02T07:41:59;5.10;78.10
44121;DHT22;29783;52.504;13.478;2023-02-02T07:44:25;5.00;78.40
44121;DHT22;29783;52.504;13.478;2023-02-02T07:46:50;5.00;78.00
44121;DHT22;29783;52.504;13.478;2023-02-02T07:49:17;5.00;78.10
44121;DHT22;29783;52.504;13.478;2023-02-02T07:51:44;4.90;78.80
44121;DHT22;29783;52.504;13.478;2023-02-02T07:54:13;5.00;78.70
44121;DHT22;29783;52.504;13.478;2023-02-02T07:56:39;4.90;79.00
44121;DHT22;29783;52.504;13.478;2023-02-02T07:59:05;4.80;79.20
44121;DHT22;29783;52.504;13.478;2023-02-02T08:01:31;5.00;78.90
44121;DHT22;29783;52.504;13.478;2023-02-02T08:03:57;4.90;79.20
44121;DHT22;29783;52.504;13.478;2023-02-02T08:06:30;5.00;79.30
44121;DHT22;29783;52.504;13.478;2023-02-02T08:08:57;5.00;79.50
44121;DHT22;29783;52.504;13.478;2023-02-02T08:11:27;5.00;80.20
44121;DHT22;29783;52.504;13.478;2023-02-02T08:13:58;5.10;80.90
44121;DHT22;29783;52.504;13.478;2023-02-02T08:16:25;5.00;81.40
44121;DHT22;29783;52.504;13.478;2023-02-02T08:18:51;5.10;81.70
44121;DHT22;29783;52.504;13.478;2023-02-02T08:21:18;5.10;81.70
44121;DHT22;29783;52.504;13.478;2023-02-02T08:23:44;5.20;82.20
44121;DHT22;29783;52.504;13.478;2023-02-02T08:26:14;5.20;82.30
44121;DHT22;29783;52.504;13.478;2023-02-02T08:28:42;5.20;82.70
44121;DHT22;29783;52.504;13.478;2023-02-02T08:33:41;5.30;82.60
44121;DHT22;29783;52.504;13.478;2023-02-02T08:36:11;5.30;82.50
44121;DHT22;29783;52.504;13.478;2023-02-02T08:38:37;5.40;82.80
44121;DHT22;29783;52.504;13.478;2023-02-02T08:41:04;5.40;82.70
44121;DHT22;29783;52.504;13.478;2023-02-02T08:43:31;5.40;82.90
44121;DHT22;29783;52.504;13.478;2023-02-02T08:45:56;5.50;82.70
44121;DHT22;29783;52.504;13.478;2023-02-02T08:48:22;5.40;82.90
44121;DHT22;29783;52.504;13.478;2023-02-02T08:50:52;5.50;83.10
44121;DHT22;29783;52.504;13.478;2023-02-02T08:53:18;5.50;82.70
44121;DHT22;29783;52.504;13.478;2023-02-02T08:55:44;5.50;82.60
44121;DHT22;29783;52.504;13.478;2023-02-02T08:58:10;5.50;82.50
44121;DHT22;29783;52.504;13.478;2023-02-02T09:00:36;5.60;82.20
44121;DHT22;29783;52.504;13.478;2023-02-02T09:03:02;5.60;82.30
44121;DHT22;29783;52.504;13.478;2023-02-02T09:05:27;5.70;81.50
44121;DHT22;29783;52.504;13.478;2023-02-02T09:07:53;5.70;81.40
44121;DHT22;29783;52.504;13.478;2023-02-02T09:10:19;5.80;81.20
44121;DHT22;29783;52.504;13.478;2023-02-02T09:12:45;5.90;80.60
44121;DHT22;29783;52.504;13.478;2023-02-02T09:15:11;6.10;80.00
44121;DHT22;29783;52.504;13.478;2023-02-02T09:17:38;6.20;79.20
44121;DHT22;29783;52.504;13.478;2023-02-02T09:20:04;6.20;79.00
44121;DHT22;29783;52.504;13.478;2023-02-02T09:22:34;6.20;78.90
44121;DHT22;29783;52.504;13.478;2023-02-02T09:24:59;6.20;79.10
44121;DHT22;29783;52.504;13.478;2023-02-02T09:27:25;6.00;79.40
44121;DHT22;29783;52.504;13.478;2023-02-02T09:29:51;6.20;79.20
44121;DHT22;29783;52.504;13.478;2023-02-02T09:32:18;6.10;79.70
44121;DHT22;29783;52.504;13.478;2023-02-02T09:34:44;6.20;78.50
44121;DHT22;29783;52.504;13.478;2023-02-02T09:37:09;6.30;78.30
44121;DHT22;29783;52.504;13.478;2023-02-02T09:39:35;6.50;77.60
44121;DHT22;29783;52.504;13.478;2023-02-02T09:45:05;6.40;76.80
44121;DHT22;29783;52.504;13.478;2023-02-02T09:52:57;6.30;77.10
44121;DHT22;29783;52.504;13.478;2023-02-02T09:55:38;6.40;77.70
44121;DHT22;29783;52.504;13.478;2023-02-02T09:58:20;6.60;77.30
44121;DHT22;29783;52.504;13.478;2023-02-02T10:01:05;6.70;76.90
44121;DHT22;29783;52.504;13.478;2023-02-02T10:15:05;6.50;75.80
44121;DHT22;29783;52.504;13.478;2023-02-02T10:17:39;6.60;75.30
44121;DHT22;29783;52.504;13.478;2023-02-02T10:22:46;6.50;73.70
44121;DHT22;29783;52.504;13.478;2023-02-02T10:25:14;6.50;74.50
44121;DHT22;29783;52.504;13.478;2023-02-02T10:27:45;6.40;71.10
44121;DHT22;29783;52.504;13.478;2023-02-02T10:30:30;6.50;73.90
44121;DHT22;29783;52.504;13.478;2023-02-02T10:33:04;6.50;73.90
44121;DHT22;29783;52.504;13.478;2023-02-02T10:40:41;6.50;74.10
44121;DHT22;29783;52.504;13.478;2023-02-02T10:46:03;6.70;71.90
44121;DHT22;29783;52.504;13.478;2023-02-02T10:48:32;6.90;70.80
44121;DHT22;29783;52.504;13.478;2023-02-02T10:51:49;7.20;69.10
44121;DHT22;29783;52.504;13.478;2023-02-02T10:53:57;7.30;68.50
44121;DHT22;29783;52.504;13.478;2023-02-02T10:56:35;7.40;66.20
44121;DHT22;29783;52.504;13.478;2023-02-02T11:01:32;7.10;65.70
44121;DHT22;29783;52.504;13.478;2023-02-02T11:03:58;7.10;64.80
44121;DHT22;29783;52.504;13.478;2023-02-02T11:06:42;7.00;66.20
44121;DHT22;29783;52.504;13.478;2023-02-02T11:09:30;6.90;67.10
44121;DHT22;29783;52.504;13.478;2023-02-02T11:12:20;7.00;66.20
44121;DHT22;29783;52.504;13.478;2023-02-02T11:15:00;7.00;66.00
44121;DHT22;29783;52.504;13.478;2023-02-02T11:17:26;6.90;66.10
44121;DHT22;29783;52.504;13.478;2023-02-02T11:19:53;7.00;66.70
44121;DHT22;29783;52.504;13.478;2023-02-02T11:22:35;7.00;67.00
44121;DHT22;29783;52.504;13.478;2023-02-02T11:25:41;7.10;65.80
44121;DHT22;29783;52.504;13.478;2023-02-02T11:28:19;7.30;65.00
44121;DHT22;29783;52.504;13.478;2023-02-02T11:30:47;7.40;65.20
44121;DHT22;29783;52.504;13.478;2023-02-02T11:33:29;7.60;64.80
44121;DHT22;29783;52.504;13.478;2023-02-02T11:36:03;7.40;64.60
44121;DHT22;29783;52.504;13.478;2023-02-02T11:38:30;7.40;65.50
44121;DHT22;29783;52.504;13.478;2023-02-02T11:41:05;7.60;65.10
44121;DHT22;29783;52.504;13.478;2023-02-02T11:43:53;7.60;64.70
44121;DHT22;29783;52.504;13.478;2023-02-02T11:46:24;7.50;65.30
44121;DHT22;29783;52.504;13.478;2023-02-02T11:49:02;7.40;65.20
44121;DHT22;29783;52.504;13.478;2023-02-02T11:51:29;7.40;65.90
44121;DHT22;29783;52.504;13.478;2023-02-02T11:54:25;7.40;65.30
44121;DHT22;29783;52.504;13.478;2023-02-02T11:56:52;7.50;65.90
44121;DHT22;29783;52.504;13.478;2023-02-02T11:59:35;7.50;65.10
44121;DHT22;29783;52.504;13.478;2023-02-02T12:02:28;7.50;65.00
44121;DHT22;29783;52.504;13.478;2023-02-02T12:05:13;7.40;65.50
44121;DHT22;29783;52.504;13.478;2023-02-02T12:07:43;7.40;65.90
44121;DHT22;29783;52.504;13.478;2023-02-02T12:21:52;7.20;69.20
44121;DHT22;29783;52.504;13.478;2023-02-02T12:24:30;7.30;70.20
44121;DHT22;29783;52.504;13.478;2023-02-02T12:27:19;7.00;71.50
44121;DHT22;29783;52.504;13.478;2023-02-02T12:32:50;7.00;73.50
44121;DHT22;29783;52.504;13.478;2023-02-02T12:35:45;6.80;74.00
44121;DHT22;29783;52.504;13.478;2023-02-02T12:41:26;6.50;74.80
44121;DHT22;29783;52.504;13.478;2023-02-02T12:46:44;6.50;74.50
44121;DHT22;29783;52.504;13.478;2023-02-02T13:09:30;8.90;64.00
44121;DHT22;29783;52.504;13.478;2023-02-02T13:12:09;9.50;59.70
44121;DHT22;29783;52.504;13.478;2023-02-02T13:14:50;9.40;60.20
44121;DHT22;29783;52.504;13.478;2023-02-02T13:17:52;9.40;61.00
44121;DHT22;29783;52.504;13.478;2023-02-02T13:20:34;10.20;58.00
44121;DHT22;29783;52.504;13.478;2023-02-02T13:23:07;10.50;55.60
44121;DHT22;29783;52.504;13.478;2023-02-02T13:25:39;9.10;58.90
44121;DHT22;29783;52.504;13.478;2023-02-02T13:30:58;8.50;59.20
44121;DHT22;29783;52.504;13.478;2023-02-02T13:33:32;9.00;57.70
44121;DHT22;29783;52.504;13.478;2023-02-02T13:36:04;9.00;58.10
44121;DHT22;29783;52.504;13.478;2023-02-02T13:38:33;8.90;58.20
44121;DHT22;29783;52.504;13.478;2023-02-02T13:41:03;8.60;59.50
44121;DHT22;29783;52.504;13.478;2023-02-02T13:43:56;8.30;59.50
44121;DHT22;29783;52.504;13.478;2023-02-02T13:47:08;7.80;61.70
44121;DHT22;29783;52.504;13.478;2023-02-02T13:49:43;7.50;63.00
44121;DHT22;29783;52.504;13.478;2023-02-02T14:00:37;8.50;56.00
44121;DHT22;29783;52.504;13.478;2023-02-02T14:03:20;8.20;56.60
44121;DHT22;29783;52.504;13.478;2023-02-02T14:06:07;8.40;55.40
44121;DHT22;29783;52.504;13.478;2023-02-02T14:08:34;8.80;54.00
44121;DHT22;29783;52.504;13.478;2023-02-02T14:11:02;8.70;54.80
44121;DHT22;29783;52.504;13.478;2023-02-02T14:13:45;8.40;54.70
44121;DHT22;29783;52.504;13.478;2023-02-02T14:19:05;7.60;57.80
44121;DHT22;29783;52.504;13.478;2023-02-02T14:26:47;7.40;58.70
44121;DHT22;29783;52.504;13.478;2023-02-02T14:34:45;8.50;55.40
44121;DHT22;29783;52.504;13.478;2023-02-02T14:48:01;6.50;62.00
44121;DHT22;29783;52.504;13.478;2023-02-02T14:56:07;6.00;62.40
44121;DHT22;29783;52.504;13.478;2023-02-02T14:58:52;6.00;62.40
44121;DHT22;29783;52.504;13.478;2023-02-02T15:06:49;6.20;62.30
44121;DHT22;29783;52.504;13.478;2023-02-02T15:17:05;6.70;61.60
44121;DHT22;29783;52.504;13.478;2023-02-02T15:19:37;6.60;61.20
44121;DHT22;29783;52.504;13.478;2023-02-02T15:24:49;6.10;63.00
44121;DHT22;29783;52.504;13.478;2023-02-02T15:27:17;5.90;63.70
44121;DHT22;29783;52.504;13.478;2023-02-02T15:29:47;5.70;63.70
44121;DHT22;29783;52.504;13.478;2023-02-02T15:32:16;5.60;63.80
44121;DHT22;29783;52.504;13.478;2023-02-02T15:34:50;5.50;64.00
44121;DHT22;29783;52.504;13.478;2023-02-02T15:37:24;5.30;64.10
44121;DHT22;29783;52.504;13.478;2023-02-02T15:39:53;5.20;64.20
44121;DHT22;29783;52.504;13.478;2023-02-02T15:42:21;5.10;64.50
44121;DHT22;29783;52.504;13.478;2023-02-02T15:47:52;4.80;64.60
44121;DHT22;29783;52.504;13.478;2023-02-02T15:50:19;4.70;64.50
44121;DHT22;29783;52.504;13.478;2023-02-02T15:52:47;4.70;64.70
44121;DHT22;29783;52.504;13.478;2023-02-02T15:55:27;4.60;65.00
44121;DHT22;29783;52.504;13.478;2023-02-02T15:57:54;4.50;65.10
44121;DHT22;29783;52.504;13.478;2023-02-02T16:00:30;4.40;64.60
44121;DHT22;29783;52.504;13.478;2023-02-02T16:03:04;4.40;64.60
44121;DHT22;29783;52.504;13.478;2023-02-02T16:08:01;4.30;65.70
44121;DHT22;29783;52.504;13.478;2023-02-02T16:10:27;4.10;65.80
44121;DHT22;29783;52.504;13.478;2023-02-02T16:12:53;4.10;65.80
44121;DHT22;29783;52.504;13.478;2023-02-02T16:15:24;4.00;66.10
44121;DHT22;29783;52.504;13.478;2023-02-02T16:17:58;3.90;66.40
44121;DHT22;29783;52.504;13.478;2023-02-02T16:20:25;3.80;66.80
44121;DHT22;29783;52.504;13.478;2023-02-02T16:22:53;3.80;67.10
44121;DHT22;29783;52.504;13.478;2023-02-02T16:25:21;3.80;67.30
44121;DHT22;29783;52.504;13.478;2023-02-02T16:27:48;3.60;67.80
44121;DHT22;29783;52.504;13.478;2023-02-02T16:30:29;3.70;67.90
44121;DHT22;29783;52.504;13.478;2023-02-02T16:33:24;3.50;68.30
44121;DHT22;29783;52.504;13.478;2023-02-02T16:35:45;3.50;68.40
44121;DHT22;29783;52.504;13.478;2023-02-02T16:38:22;3.50;68.80
44121;DHT22;29783;52.504;13.478;2023-02-02T16:40:59;3.40;69.00
44121;DHT22;29783;52.504;13.478;2023-02-02T16:43:29;3.30;69.60
44121;DHT22;29783;52.504;13.478;2023-02-02T16:45:56;3.40;69.00
44121;DHT22;29783;52.504;13.478;2023-02-02T16:59:13;3.30;70.30
44121;DHT22;29783;52.504;13.478;2023-02-02T17:01:43;3.30;70.00
44121;DHT22;29783;52.504;13.478;2023-02-02T17:04:38;3.20;70.30
44121;DHT22;29783;52.504;13.478;2023-02-02T17:07:11;3.20;70.70
44121;DHT22;29783;52.504;13.478;2023-02-02T17:09:40;3.10;71.00
44121;DHT22;29783;52.504;13.478;2023-02-02T17:14:55;2.90;71.80
44121;DHT22;29783;52.504;13.478;2023-02-02T17:17:22;3.00;71.80
44121;DHT22;29783;52.504;13.478;2023-02-02T17:19:48;2.90;71.90
44121;DHT22;29783;52.504;13.478;2023-02-02T17:22:15;2.80;72.30
44121;DHT22;29783;52.504;13.478;2023-02-02T17:24:47;2.80;72.40
44121;DHT22;29783;52.504;13.478;2023-02-02T17:29:51;2.60;73.10
44121;DHT22;29783;52.504;13.478;2023-02-02T17:32:20;2.70;73.20
44121;DHT22;29783;52.504;13.478;2023-02-02T17:34:46;2.80;73.20
44121;DHT22;29783;52.504;13.478;2023-02-02T17:37:11;2.70;73.20
44121;DHT22;29783;52.504;13.478;2023-02-02T17:39:37;2.80;73.10
44121;DHT22;29783;52.504;13.478;2023-02-02T17:42:19;2.80;73.00
44121;DHT22;29783;52.504;13.478;2023-02-02T17:44:45;2.80;72.80
44121;DHT22;29783;52.504;13.478;2023-02-02T17:47:12;2.70;73.40
44121;DHT22;29783;52.504;13.478;2023-02-02T17:49:38;2.60;73.80
44121;DHT22;29783;52.504;13.478;2023-02-02T17:52:04;2.50;74.20
44121;DHT22;29783;52.504;13.478;2023-02-02T17:54:30;2.60;74.10
44121;DHT22;29783;52.504;13.478;2023-02-02T17:56:55;2.60;74.30
44121;DHT22;29783;52.504;13.478;2023-02-02T17:59:21;2.60;74.20
44121;DHT22;29783;52.504;13.478;2023-02-02T18:01:47;2.50;74.70
44121;DHT22;29783;52.504;13.478;2023-02-02T18:04:14;2.40;75.30
44121;DHT22;29783;52.504;13.478;2023-02-02T18:06:40;2.30;75.80
44121;DHT22;29783;52.504;13.478;2023-02-02T18:09:05;2.40;76.10
44121;DHT22;29783;52.504;13.478;2023-02-02T18:11:31;2.50;75.60
44121;DHT22;29783;52.504;13.478;2023-02-02T18:13:57;2.40;75.80
44121;DHT22;29783;52.504;13.478;2023-02-02T18:16:23;2.30;76.20
44121;DHT22;29783;52.504;13.478;2023-02-02T18:18:49;2.30;76.70
44121;DHT22;29783;52.504;13.478;2023-02-02T18:21:15;2.30;76.50
44121;DHT22;29783;52.504;13.478;2023-02-02T18:23:41;2.30;76.40
44121;DHT22;29783;52.504;13.478;2023-02-02T18:26:10;2.30;76.70
44121;DHT22;29783;52.504;13.478;2023-02-02T18:28:37;2.10;77.10
44121;DHT22;29783;52.504;13.478;2023-02-02T18:31:08;2.10;77.50
44121;DHT22;29783;52.504;13.478;2023-02-02T18:33:34;2.10;77.80
44121;DHT22;29783;52.504;13.478;2023-02-02T18:36:05;2.20;77.60
44121;DHT22;29783;52.504;13.478;2023-02-02T18:38:33;2.20;77.30
44121;DHT22;29783;52.504;13.478;2023-02-02T18:41:00;2.20;77.30
44121;DHT22;29783;52.504;13.478;2023-02-02T18:43:27;2.30;77.30
44121;DHT22;29783;52.504;13.478;2023-02-02T18:46:02;2.30;77.00